Wooster, OH (44691)

12:50 PM EDT on July 24, 2017 (GMT -0400)
Erik and Tati's Casa | | Change Station
Active Advisory: Flood Warning

Elev 1053 ft 40.81 °N, 81.93 °W | Updated 34 seconds ago

Partly Cloudy
Partly Cloudy
76.0 °F
Feels Like 78 °F
N
9.0
Wind Variable Wind from NNE

Today
High -- | Low -- °F
--% Chance of Precip.
Yesterday
High -- | Low -- °F
Precip. -- in
Pressure 29.89 in
Visibility 10.0 miles
Clouds Few 2300 ft
Scattered Clouds 3200 ft
Heat Index 78 °F
Dew Point 64 °F
Humidity 68%
Rainfall 0.00 in
Snow Depth Not available.
6:17 AM 8:51 PM
New Moon, 2% visible
METAR KBJJ 241556Z AUTO 32010KT 10SM FEW023 SCT032 24/19 A2991 RMK AO2 SLP121 T02440189
Pressure 29.89 in
Visibility 10.0 miles
Clouds Few 2300 ft
Scattered Clouds 3200 ft
Heat Index 78 °F
Dew Point 64 °F
Humidity 68%
Rainfall 0.00 in
Snow Depth Not available.
6:17 AM 8:51 PM
New Moon, 2% visible
METAR KBJJ 241556Z AUTO 32010KT 10SM FEW023 SCT032 24/19 A2991 RMK AO2 SLP121 T02440189

Get Your Daily Forecast Email!

Thanks for signing up!

Be on the lookout for a verification email in your inbox.

You'll start receiving severe weather alerts in your inbox..

×

10-Day Weather Forecast

Almanac

Astronomy

Jul. 24, 2017 Rise Set
Actual Time
Civil Twilight
Nautical Twilight
Astronomical Twilight
Moon
Length of Visible Light
Length of Day
Tomorrow will be .
, % of the Moon is Illuminated

Today's Extremes

State Highs State Lows

Community

WunderPhotos

Category 6

Welcome to Category 6. This is the collective home for Weather Underground's featured writeups by Dr. Jeff Masters (right), Bob Henson (left), Chris Burt, and other regular contributors.

Nearby

Air Quality

  Air Quality AQ Index Pollutant
Not available.

Snow Depth

Station Depth Elevation

Earthquake Activity

City Distance Mag. Time & Date
Minimum magnitude displayed is 2.5.

Coastal Water Temperatures

Place Temperature

Stations

Nearby Weather Stations

Station Location Temp. Windchill Dew Point Humidity Wind Precip. Elev Updated Type
                   

Watches & Warnings

Flood Warning
Issued: 8:09 AM EDT Jul. 24, 2017 – National Weather Service

The National Weather Service in Cleveland has issued a

* Flood Warning for
the Killbuck creek near Killbuck
* from this morning to Tuesday afternoon.
* At 8 am the stage was 14.8 feet.
* Flood stage is 15.0 feet.
* Minor flooding is forecast.
* Forecast... rise above flood stage late this morning and rise to
near 15.3 feet this evening. The river will fall below flood
stage Tuesday morning.
* At 15.0 feet... several low lying roads in Holmes County including
County Road 1, township Road 91, and County Road 621 are flooded.


Lat... Lon 4099 8203 4099 8193 4067 8190 4045 8191
      4045 8202 4067 8202